Time;durP1;ratioP1;P1;durP2;ratioP2;P2;SDS_P1;SDS_P2;PMS_P1;PMS_P2;Temp;Humidity;BMP_temperature;BMP_pressure;BME280_temperature;BME280_humidity;BME280_pressure;Samples;Min_cycle;Max_cycle;Signal;HPM_P1;HPM_P2
2021/12/26 00:00:24;;;;;;;6.70;1.67;;;;;;;18.29;38.52;100708.94;5032500;28;20056;-68
2021/12/26 00:02:49;;;;;;;4.68;1.27;;;;;;;18.27;38.56;100716.13;5032775;28;20029;-68
2021/12/26 00:05:16;;;;;;;2.72;1.10;;;;;;;18.25;38.72;100720.72;5032986;28;20492;-68
2021/12/26 00:07:42;;;;;;;4.15;1.42;;;;;;;18.22;38.91;100710.41;5031975;28;20388;-68
2021/12/26 00:10:10;;;;;;;3.72;1.45;;;;;;;18.20;38.74;100711.50;5033046;28;20132;-68
2021/12/26 00:12:35;;;;;;;3.83;1.30;;;;;;;18.17;38.94;100715.25;5033105;28;20041;-69
2021/12/26 00:15:01;;;;;;;4.22;1.40;;;;;;;18.13;38.80;100711.19;5031886;28;20586;-69
2021/12/26 00:17:30;;;;;;;5.13;1.60;;;;;;;18.09;38.79;100707.97;5033203;28;20028;-68
2021/12/26 00:19:56;;;;;;;4.72;1.48;;;;;;;18.09;38.84;100701.88;5032586;28;20017;-68
2021/12/26 00:22:21;;;;;;;3.30;1.33;;;;;;;18.06;38.71;100702.94;5031982;28;20048;-68
2021/12/26 00:24:46;;;;;;;3.28;1.33;;;;;;;18.03;38.66;100697.94;5032686;28;20527;-68
2021/12/26 00:27:13;;;;;;;2.47;1.20;;;;;;;18.02;39.03;100696.25;5032916;28;20042;-68
2021/12/26 00:29:39;;;;;;;4.47;1.52;;;;;;;17.98;38.89;100684.28;5032792;28;20041;-68
2021/12/26 00:32:06;;;;;;;4.75;1.48;;;;;;;17.95;38.75;100695.91;5034164;28;20021;-68
2021/12/26 00:34:31;;;;;;;2.75;1.15;;;;;;;17.91;38.85;100683.13;5033078;28;20021;-67
2021/12/26 00:36:57;;;;;;;5.22;1.60;;;;;;;17.91;38.87;100685.75;5032335;28;20530;-68
2021/12/26 00:39:22;;;;;;;4.15;1.25;;;;;;;17.88;39.07;100693.91;5033993;28;20028;-68
2021/12/26 00:41:52;;;;;;;5.32;1.48;;;;;;;17.86;38.96;100687.91;5032344;28;20544;-68
2021/12/26 00:44:18;;;;;;;6.78;1.73;;;;;;;17.84;38.57;100690.66;5032008;28;20050;-68
2021/12/26 00:46:43;;;;;;;3.97;1.40;;;;;;;17.83;38.40;100691.66;5030914;28;20033;-68
2021/12/26 00:49:09;;;;;;;4.23;1.23;;;;;;;17.79;38.89;100689.38;5031957;28;20061;-68
2021/12/26 00:51:34;;;;;;;4.40;1.30;;;;;;;17.78;38.73;100696.44;5032523;28;20271;-68
2021/12/26 00:53:59;;;;;;;3.40;1.25;;;;;;;17.74;39.05;100692.41;5032448;28;20370;-68
2021/12/26 00:56:25;;;;;;;3.63;1.23;;;;;;;17.74;38.54;100697.69;5031731;28;20041;-68
2021/12/26 00:58:50;;;;;;;3.47;1.50;;;;;;;17.72;38.79;100694.31;5032502;28;20045;-68
2021/12/26 01:01:16;;;;;;;5.40;1.52;;;;;;;17.69;38.90;100698.03;5032567;28;20030;-68
2021/12/26 01:03:42;;;;;;;4.35;1.50;;;;;;;17.67;38.58;100697.31;5031518;28;20120;-67
2021/12/26 01:06:08;;;;;;;4.20;1.40;;;;;;;17.66;38.61;100694.84;5032487;28;20033;-68
2021/12/26 01:08:38;;;;;;;3.63;1.50;;;;;;;17.66;38.42;100700.94;5032246;28;20112;-68
2021/12/26 01:11:19;;;;;;;3.35;1.30;;;;;;;17.68;38.65;100696.38;5035335;28;20072;-67
2021/12/26 01:13:46;;;;;;;3.20;1.25;;;;;;;17.71;38.23;100703.19;5035826;28;20466;-68
2021/12/26 01:16:14;;;;;;;4.53;1.52;;;;;;;17.73;38.32;100701.25;5036119;28;20022;-68
2021/12/26 01:18:46;;;;;;;4.70;1.40;;;;;;;17.74;38.21;100698.50;5034983;28;20030;-68
2021/12/26 01:21:19;;;;;;;3.50;1.20;;;;;;;17.74;37.86;100695.88;5036187;28;20029;-69
2021/12/26 01:23:47;;;;;;;4.20;1.42;;;;;;;17.75;37.79;100691.41;5035437;28;20496;-68
2021/12/26 01:26:12;;;;;;;4.03;1.40;;;;;;;17.77;38.23;100695.63;5034974;28;20384;-68
2021/12/26 01:28:37;;;;;;;4.57;1.27;;;;;;;17.76;38.10;100690.47;5035783;28;20021;-69
2021/12/26 01:31:03;;;;;;;4.45;1.60;;;;;;;17.76;38.04;100688.66;5035586;28;20041;-69
2021/12/26 01:33:29;;;;;;;3.35;1.30;;;;;;;17.77;37.93;100689.53;5034906;28;20094;-69
2021/12/26 01:35:55;;;;;;;4.00;1.48;;;;;;;17.76;38.32;100680.75;5035626;28;20064;-68
2021/12/26 01:38:21;;;;;;;4.53;1.48;;;;;;;17.76;37.86;100683.38;5035335;28;20022;-69
2021/12/26 01:40:54;;;;;;;3.95;1.40;;;;;;;17.75;38.17;100687.00;5035393;28;20091;-69
2021/12/26 01:43:23;;;;;;;3.72;1.50;;;;;;;17.73;37.78;100685.44;5035583;28;20033;-69
2021/12/26 01:45:49;;;;;;;5.35;1.50;;;;;;;17.71;37.91;100680.28;5034379;28;20030;-68
2021/12/26 01:48:15;;;;;;;3.50;1.40;;;;;;;17.71;37.74;100682.94;5035616;28;20026;-68
2021/12/26 01:50:41;;;;;;;4.65;1.70;;;;;;;17.71;37.85;100682.94;5035414;28;20022;-69
2021/12/26 01:53:09;;;;;;;5.20;1.75;;;;;;;17.69;38.16;100674.31;5034903;28;20028;-68
2021/12/26 01:55:43;;;;;;;4.65;1.50;;;;;;;17.68;37.90;100675.28;5035492;28;20042;-69
2021/12/26 01:58:22;;;;;;;3.70;1.70;;;;;;;17.68;38.34;100682.34;5035332;28;20029;-69
2021/12/26 02:00:53;;;;;;;4.90;1.40;;;;;;;17.66;37.97;100679.84;5034461;28;20045;-69
2021/12/26 02:03:21;;;;;;;5.30;1.73;;;;;;;17.66;37.86;100685.13;5035087;28;20413;-69
2021/12/26 02:05:47;;;;;;;4.38;1.70;;;;;;;17.68;37.87;100685.00;5034907;28;20025;-69
2021/12/26 02:08:13;;;;;;;4.63;1.40;;;;;;;17.69;37.86;100681.38;5034822;28;20428;-69
2021/12/26 02:10:47;;;;;;;3.67;1.48;;;;;;;17.71;37.58;100677.66;5035130;28;20473;-68
2021/12/26 02:13:12;;;;;;;;;;;;;;;17.69;37.92;100679.59;5035383;28;20404;-69
2021/12/26 02:15:38;;;;;;;3.80;1.52;;;;;;;17.72;37.38;100674.06;5034466;28;19920;-68
2021/12/26 02:18:07;;;;;;;4.55;1.40;;;;;;;17.73;37.70;100673.09;5034760;28;20029;-68
2021/12/26 02:23:15;;;;;;;3.88;1.42;;;;;;;17.72;37.35;100675.84;5034573;28;20052;-68
2021/12/26 02:28:09;;;;;;;5.25;1.40;;;;;;;17.74;37.52;100674.78;5034132;28;20041;-69
2021/12/26 02:30:34;;;;;;;3.95;1.48;;;;;;;17.73;37.57;100667.81;5034764;28;20036;-69
2021/12/26 02:33:03;;;;;;;4.18;1.55;;;;;;;17.76;38.11;100661.47;5034482;28;20029;-68
2021/12/26 02:35:29;;;;;;;2.97;1.40;;;;;;;17.77;38.08;100655.25;5033203;28;20397;-69
2021/12/26 02:37:54;;;;;;;3.47;1.60;;;;;;;17.79;37.48;100655.94;5034190;28;20488;-68
2021/12/26 02:40:19;;;;;;;5.50;1.65;;;;;;;17.81;37.83;100658.47;5034432;28;20041;-68
2021/12/26 02:42:46;;;;;;;4.30;1.30;;;;;;;17.81;37.73;100647.91;5033559;28;20029;-68
2021/12/26 02:45:12;;;;;;;5.57;1.60;;;;;;;17.81;37.47;100653.19;5034318;28;20036;-68
2021/12/26 02:47:41;;;;;;;4.90;1.67;;;;;;;17.83;37.07;100657.38;5034496;28;20025;-68
2021/12/26 02:50:10;;;;;;;4.82;1.65;;;;;;;17.82;37.20;100646.97;5033615;28;20024;-68
2021/12/26 02:52:35;;;;;;;4.88;1.42;;;;;;;17.81;37.45;100650.56;5034223;28;20462;-69
2021/12/26 02:55:01;;;;;;;4.65;1.65;;;;;;;17.84;37.58;100647.66;5034076;28;20029;-67
2021/12/26 02:57:27;;;;;;;5.28;1.92;;;;;;;17.86;37.51;100656.28;5033490;28;20473;-69
2021/12/26 02:59:52;;;;;;;5.28;1.75;;;;;;;17.85;37.70;100655.44;5033606;28;20485;-68
2021/12/26 03:02:18;;;;;;;4.00;1.55;;;;;;;17.85;37.49;100644.03;5034079;28;20032;-67
2021/12/26 03:04:43;;;;;;;4.03;1.40;;;;;;;17.85;37.29;100650.19;5033385;28;20017;-67
2021/12/26 03:07:08;;;;;;;5.65;1.73;;;;;;;17.87;37.53;100650.88;5034001;28;20512;-67
2021/12/26 03:09:44;;;;;;;5.03;1.60;;;;;;;17.88;37.18;100651.72;5033792;28;20025;-68
2021/12/26 03:12:10;;;;;;;5.28;1.60;;;;;;;17.87;37.31;100648.22;5033517;28;20421;-68
2021/12/26 03:14:38;;;;;;;4.53;1.42;;;;;;;17.88;37.45;100651.72;5033937;28;20038;-68
2021/12/26 03:17:04;;;;;;;4.78;1.55;;;;;;;17.89;37.82;100648.13;5032708;28;20108;-68
2021/12/26 03:19:36;;;;;;;5.70;2.15;;;;;;;17.90;37.54;100644.56;5033634;28;20025;-68
2021/12/26 03:22:03;;;;;;;3.85;1.55;;;;;;;17.91;37.54;100635.66;5033293;28;20022;-68
2021/12/26 03:24:32;;;;;;;4.72;1.60;;;;;;;17.92;37.43;100632.06;5032943;28;20036;-68
2021/12/26 03:26:59;;;;;;;6.22;1.88;;;;;;;17.91;37.66;100628.59;5033513;28;20037;-68
2021/12/26 03:29:24;;;;;;;6.10;1.90;;;;;;;17.93;37.04;100623.22;5033316;28;20496;-68
2021/12/26 03:31:52;;;;;;;3.85;1.50;;;;;;;17.91;37.19;100620.69;5031875;28;20030;-68
2021/12/26 03:34:18;;;;;;;5.10;1.52;;;;;;;17.92;37.36;100626.78;5033529;28;20025;-68
2021/12/26 03:36:43;;;;;;;4.55;1.90;;;;;;;17.91;37.01;100622.47;5033067;28;20100;-68
2021/12/26 03:39:08;;;;;;;6.20;2.00;;;;;;;17.91;37.17;100628.59;5032789;28;20037;-69
2021/12/26 03:41:34;;;;;;;4.22;1.50;;;;;;;17.90;37.26;100629.56;5033326;28;20401;-68
2021/12/26 03:44:00;;;;;;;3.88;1.40;;;;;;;17.91;37.11;100628.59;5032881;28;20208;-68
2021/12/26 03:46:28;;;;;;;3.05;1.55;;;;;;;17.92;36.98;100630.25;5033089;28;20032;-69
2021/12/26 03:48:53;;;;;;;5.38;1.63;;;;;;;17.92;37.16;100629.44;5033193;28;20096;-69
2021/12/26 03:51:20;;;;;;;4.43;1.58;;;;;;;17.92;37.30;100635.53;5033313;28;20108;-69
2021/12/26 03:53:45;;;;;;;4.25;1.40;;;;;;;17.93;37.17;100634.56;5032284;28;20466;-69
2021/12/26 03:56:10;;;;;;;4.00;1.90;;;;;;;17.92;37.04;100626.78;5033389;28;20064;-69
2021/12/26 03:58:37;;;;;;;3.05;1.40;;;;;;;17.92;37.05;100630.25;5033248;28;20029;-69
2021/12/26 04:01:02;;;;;;;3.97;2.08;;;;;;;17.92;36.75;100629.44;5032159;28;20034;-68
2021/12/26 04:03:27;;;;;;;5.68;1.90;;;;;;;17.90;37.13;100621.66;5032966;28;20025;-69
2021/12/26 04:05:53;;;;;;;3.87;1.50;;;;;;;17.92;36.91;100621.53;5033136;28;20723;-69
2021/12/26 04:08:18;;;;;;;4.07;1.52;;;;;;;17.91;36.88;100623.34;5033117;28;20273;-69
2021/12/26 04:10:43;;;;;;;7.47;1.85;;;;;;;17.92;37.19;100624.16;5032952;28;20033;-69
2021/12/26 04:13:09;;;;;;;6.43;1.70;;;;;;;17.90;37.21;100619.00;5032343;28;20507;-69
2021/12/26 04:15:34;;;;;;;3.97;1.52;;;;;;;17.92;36.94;100621.53;5033145;28;20034;-69
2021/12/26 04:18:00;;;;;;;3.33;1.60;;;;;;;17.93;36.87;100623.22;5032848;28;20128;-69
2021/12/26 04:20:26;;;;;;;4.72;1.73;;;;;;;17.93;36.99;100620.56;5033650;28;20033;-69
2021/12/26 04:22:52;;;;;;;5.38;1.80;;;;;;;17.92;36.81;100621.53;5033842;28;20064;-69
2021/12/26 04:25:19;;;;;;;5.50;1.50;;;;;;;17.91;36.48;100618.06;5035326;28;20033;-70
2021/12/26 04:27:45;;;;;;;4.30;1.70;;;;;;;17.91;36.55;100620.69;5034111;28;20053;-69
2021/12/26 04:30:12;;;;;;;3.83;1.58;;;;;;;17.91;36.98;100620.69;5035500;28;20172;-68
2021/12/26 04:32:38;;;;;;;4.00;1.63;;;;;;;17.91;36.95;100619.84;5036711;28;20032;-69
2021/12/26 04:35:04;;;;;;;4.32;1.58;;;;;;;17.92;36.89;100621.53;5036070;28;20045;-69
2021/12/26 04:37:30;;;;;;;4.00;1.40;;;;;;;17.91;36.72;100612.78;5032944;28;20480;-69
2021/12/26 04:40:03;;;;;;;4.32;1.60;;;;;;;17.91;37.08;100610.16;5032408;28;20417;-69
2021/12/26 04:42:29;;;;;;;5.57;1.67;;;;;;;17.92;36.46;100608.34;5031846;28;20497;-69
2021/12/26 04:44:57;;;;;;;4.90;1.55;;;;;;;17.92;36.72;100614.44;5034072;28;20321;-68
2021/12/26 04:47:22;;;;;;;4.10;1.42;;;;;;;17.91;36.76;100606.66;5036812;28;20037;-68
2021/12/26 04:49:50;;;;;;;3.92;1.50;;;;;;;17.91;36.43;100610.16;5035659;28;20079;-68
2021/12/26 04:52:15;;;;;;;3.80;1.45;;;;;;;17.92;36.99;100605.69;5036537;28;20030;-68
2021/12/26 04:54:41;;;;;;;4.15;1.55;;;;;;;17.91;36.84;100604.88;5036331;28;20018;-68
2021/12/26 04:57:06;;;;;;;3.47;1.58;;;;;;;17.91;36.58;100599.59;5036069;28;20358;-68
2021/12/26 04:59:32;;;;;;;3.80;1.48;;;;;;;17.92;36.92;100603.06;5036311;28;20018;-68
2021/12/26 05:01:57;;;;;;;5.00;1.73;;;;;;;17.92;36.98;100605.69;5036277;28;20033;-68
2021/12/26 05:04:22;;;;;;;3.97;1.50;;;;;;;17.92;36.51;100605.69;5035587;28;20054;-68
2021/12/26 05:06:48;;;;;;;4.53;1.63;;;;;;;17.93;36.70;100607.38;5036098;28;20103;-69
2021/12/26 05:09:16;;;;;;;3.23;1.40;;;;;;;17.92;36.17;100600.44;5036339;28;20025;-68
2021/12/26 05:11:41;;;;;;;4.68;1.63;;;;;;;17.92;36.51;100603.06;5035119;28;20283;-68
2021/12/26 05:14:07;;;;;;;3.75;1.60;;;;;;;17.91;36.79;100602.25;5036099;28;20030;-68
2021/12/26 05:16:33;;;;;;;5.38;1.90;;;;;;;17.92;36.29;100592.53;5035531;28;20060;-68
2021/12/26 05:18:59;;;;;;;4.60;1.70;;;;;;;17.92;36.77;100595.97;5035837;28;20027;-68
2021/12/26 05:21:24;;;;;;;4.32;1.55;;;;;;;17.92;36.36;100590.72;5036053;28;20048;-68
2021/12/26 05:23:49;;;;;;;4.43;1.77;;;;;;;17.92;36.80;100600.44;5034568;28;20053;-68
2021/12/26 05:26:15;;;;;;;5.23;1.60;;;;;;;17.93;36.66;100596.84;5035784;28;20042;-68
2021/12/26 05:28:40;;;;;;;4.03;1.60;;;;;;;17.90;36.46;100589.19;5035496;28;20703;-68
2021/12/26 05:31:08;;;;;;;3.55;1.45;;;;;;;17.92;36.72;100592.53;5035068;28;20068;-68
2021/12/26 05:33:33;;;;;;;4.00;1.40;;;;;;;17.92;36.78;100587.25;5035939;28;20099;-68
2021/12/26 05:36:02;;;;;;;3.22;1.40;;;;;;;17.91;36.81;100586.41;5035596;28;20466;-68
2021/12/26 05:38:30;;;;;;;6.28;2.10;;;;;;;17.92;36.60;100580.16;5034908;28;20033;-68
2021/12/26 05:40:56;;;;;;;4.40;1.30;;;;;;;17.92;36.47;100582.81;5035319;28;20113;-68
2021/12/26 05:43:21;;;;;;;5.93;1.88;;;;;;;17.91;36.30;100577.66;5035342;28;20124;-68
2021/12/26 05:45:46;;;;;;;5.00;1.38;;;;;;;17.92;36.24;100574.91;5034616;28;20028;-68
2021/12/26 05:48:12;;;;;;;3.35;1.40;;;;;;;17.92;36.60;100580.16;5035408;28;20500;-68
2021/12/26 05:50:37;;;;;;;4.82;1.40;;;;;;;17.92;36.16;100572.25;5035411;28;20025;-68
2021/12/26 05:53:02;;;;;;;4.50;1.70;;;;;;;17.91;36.25;100567.13;5034260;28;20021;-68
2021/12/26 05:55:28;;;;;;;4.40;1.80;;;;;;;17.91;36.33;100567.13;5034759;28;20021;-68
2021/12/26 05:57:53;;;;;;;4.65;1.80;;;;;;;17.92;36.47;100566.16;5034930;28;20176;-68
2021/12/26 06:00:20;;;;;;;4.28;1.42;;;;;;;17.91;36.50;100562.69;5034636;28;20061;-68
2021/12/26 06:02:46;;;;;;;5.05;1.58;;;;;;;17.92;36.29;100558.25;5034945;28;20037;-68
2021/12/26 06:05:19;;;;;;;4.30;1.60;;;;;;;17.92;36.60;100560.88;5035329;28;20487;-68
2021/12/26 06:07:49;;;;;;;5.28;1.60;;;;;;;17.91;36.12;100557.41;5034232;28;20043;-68
2021/12/26 06:10:14;;;;;;;3.55;1.55;;;;;;;17.92;36.20;100558.25;5035021;28;20025;-68
2021/12/26 06:12:40;;;;;;;3.92;1.58;;;;;;;17.91;36.38;100556.56;5034172;28;20052;-68
2021/12/26 06:15:05;;;;;;;5.70;1.60;;;;;;;17.90;36.21;100555.75;5034877;28;20473;-69
2021/12/26 06:17:31;;;;;;;4.80;1.50;;;;;;;17.90;36.75;100552.28;5035020;28;20124;-69
2021/12/26 06:19:56;;;;;;;4.03;1.60;;;;;;;17.91;36.27;100557.41;5034319;28;20097;-68
2021/12/26 06:22:24;;;;;;;6.47;1.80;;;;;;;17.92;36.23;100558.25;5034985;28;20054;-68
2021/12/26 06:24:49;;;;;;;5.03;1.63;;;;;;;17.91;36.06;100560.06;5035006;28;20017;-68
2021/12/26 06:27:15;;;;;;;4.63;1.63;;;;;;;17.90;36.48;100561.00;5035708;28;20021;-68
2021/12/26 06:29:43;;;;;;;6.70;1.75;;;;;;;17.90;36.58;100566.28;5034706;28;20120;-68
2021/12/26 06:32:08;;;;;;;4.82;1.50;;;;;;;17.90;36.06;100563.66;5034995;28;20042;-69
2021/12/26 06:34:36;;;;;;;4.60;1.50;;;;;;;17.91;36.25;100567.13;5033957;28;20052;-69
2021/12/26 06:37:02;;;;;;;4.13;1.38;;;;;;;17.90;36.60;100562.81;5034245;28;20032;-69
2021/12/26 06:39:27;;;;;;;5.45;1.65;;;;;;;17.91;37.05;100562.69;5034395;28;20021;-69
2021/12/26 06:41:52;;;;;;;5.43;1.70;;;;;;;17.94;37.28;100575.63;5033592;28;20152;-68
2021/12/26 06:44:18;;;;;;;3.90;1.30;;;;;;;17.94;37.35;100570.34;5034403;28;20788;-69
2021/12/26 06:46:43;;;;;;;4.22;1.55;;;;;;;17.98;37.41;100578.00;5033825;28;20282;-69
2021/12/26 06:49:08;;;;;;;3.72;1.30;;;;;;;18.00;37.56;100570.78;5033850;28;20108;-69
2021/12/26 06:51:34;;;;;;;5.63;1.70;;;;;;;18.02;37.45;100574.94;5034263;28;20389;-69
2021/12/26 06:54:05;;;;;;;4.03;1.50;;;;;;;18.05;37.49;100568.59;5033926;28;20083;-69
2021/12/26 06:56:30;;;;;;;5.20;1.77;;;;;;;18.06;37.34;100565.81;5033644;28;20030;-68
2021/12/26 06:58:56;;;;;;;3.95;1.45;;;;;;;18.08;37.08;100568.31;5034129;28;20370;-68
2021/12/26 07:01:21;;;;;;;4.18;1.42;;;;;;;18.08;37.83;100570.97;5034209;28;20523;-68
2021/12/26 07:03:46;;;;;;;2.72;1.08;;;;;;;18.08;37.41;100563.88;5033063;28;20072;-68
2021/12/26 07:06:11;;;;;;;4.78;1.40;;;;;;;18.11;37.65;100557.53;5033923;28;20033;-68
2021/12/26 07:08:37;;;;;;;3.60;1.50;;;;;;;18.10;37.54;100559.31;5033344;28;20384;-68
2021/12/26 07:11:02;;;;;;;4.40;1.40;;;;;;;18.11;37.37;100566.25;5033061;28;20026;-68
2021/12/26 07:13:28;;;;;;;5.25;1.67;;;;;;;18.14;37.16;100567.81;5034100;28;20384;-68
2021/12/26 07:15:53;;;;;;;5.47;1.58;;;;;;;18.12;37.67;100565.28;5033656;28;20521;-67
2021/12/26 07:18:18;;;;;;;4.07;1.65;;;;;;;18.15;37.86;100566.00;5033156;28;20029;-68
2021/12/26 07:20:43;;;;;;;5.68;1.90;;;;;;;18.16;37.76;100570.31;5033528;28;20029;-68
2021/12/26 07:23:09;;;;;;;4.15;1.50;;;;;;;18.16;37.65;100565.03;5032684;28;20053;-68
2021/12/26 07:25:34;;;;;;;6.20;1.30;;;;;;;18.15;37.82;100558.94;5033590;28;20235;-68
2021/12/26 07:28:00;;;;;;;4.47;1.75;;;;;;;18.16;37.90;100565.88;5033759;28;20244;-67
2021/12/26 07:30:28;;;;;;;4.70;1.50;;;;;;;18.19;37.64;100570.06;5032979;28;20029;-68
2021/12/26 07:32:54;;;;;;;5.55;1.63;;;;;;;18.19;37.82;100557.69;5033172;28;20064;-68
2021/12/26 07:35:22;;;;;;;4.97;1.38;;;;;;;18.19;37.81;100560.31;5033372;28;20041;-68
2021/12/26 07:37:48;;;;;;;5.65;1.85;;;;;;;18.17;36.77;100561.44;5032269;28;20028;-67
2021/12/26 07:40:13;;;;;;;4.18;1.52;;;;;;;18.11;37.06;100553.06;5033562;28;20116;-68
2021/12/26 07:42:40;;;;;;;5.57;1.45;;;;;;;18.14;38.09;100562.53;5033494;28;20113;-69
2021/12/26 07:45:06;;;;;;;4.00;1.52;;;;;;;18.18;38.85;100560.47;5032498;28;20592;-70
2021/12/26 07:47:31;;;;;;;3.08;1.17;;;;;;;18.24;38.68;100562.56;5033375;28;20021;-67
2021/12/26 07:49:57;;;;;;;4.03;1.25;;;;;;;18.31;38.46;100553.19;5032911;28;20036;-68
2021/12/26 07:52:27;;;;;;;3.57;1.20;;;;;;;18.39;38.63;100553.34;5032392;28;20025;-68
2021/12/26 07:54:56;;;;;;;4.95;1.70;;;;;;;18.48;38.85;100557.81;5033088;28;20309;-67
2021/12/26 07:57:21;;;;;;;3.78;1.40;;;;;;;18.57;38.69;100576.44;5033970;28;20025;-69
2021/12/26 07:59:46;;;;;;;4.32;1.50;;;;;;;18.60;38.77;100563.81;5032232;28;20075;-68
2021/12/26 08:02:18;;;;;;;3.23;1.10;;;;;;;18.62;39.32;100576.88;5033082;28;20036;-68
2021/12/26 08:04:45;;;;;;;4.57;1.50;;;;;;;18.61;39.13;100575.19;5032695;28;20282;-67
2021/12/26 08:07:10;;;;;;;3.05;1.40;;;;;;;18.61;38.90;100575.19;5032153;28;20028;-68
2021/12/26 08:09:35;;;;;;;3.17;1.30;;;;;;;18.61;39.39;100569.91;5033167;28;20400;-68
2021/12/26 08:12:01;;;;;;;3.83;1.60;;;;;;;18.55;36.63;100573.94;5032903;28;20025;-68
2021/12/26 08:14:26;;;;;;;4.57;1.60;;;;;;;18.51;38.46;100575.16;5032213;28;20416;-68
2021/12/26 08:16:51;;;;;;;4.25;1.50;;;;;;;18.50;38.76;100576.16;5032767;28;20060;-68
2021/12/26 08:19:19;;;;;;;3.63;1.50;;;;;;;18.52;39.36;100578.63;5031949;28;20362;-69
2021/12/26 08:21:45;;;;;;;3.47;1.35;;;;;;;18.52;39.19;100568.94;5032369;28;20018;-68
2021/12/26 08:24:10;;;;;;;4.13;1.30;;;;;;;18.56;39.41;100578.22;5033851;28;20068;-65
2021/12/26 08:26:36;;;;;;;8.85;1.40;;;;;;;18.64;38.87;100573.16;5032678;28;20402;-65
2021/12/26 08:29:23;;;;;;;5.97;1.60;;;;;;;18.78;38.74;100577.19;5033074;28;20096;-65
2021/12/26 08:31:50;;;;;;;3.88;1.52;;;;;;;18.87;38.90;100572.09;5033059;28;20036;-68
2021/12/26 08:34:20;;;;;;;3.85;1.50;;;;;;;18.90;38.59;100559.47;5032247;28;20440;-70
2021/12/26 08:36:49;;;;;;;5.15;1.67;;;;;;;18.98;38.54;100577.28;5032681;28;20018;-67
2021/12/26 08:39:14;;;;;;;3.75;1.52;;;;;;;19.03;38.43;100562.69;5032850;28;20489;-68
2021/12/26 08:41:40;;;;;;;4.73;1.80;;;;;;;19.11;38.62;100563.81;5034228;28;20075;-70
2021/12/26 08:44:05;;;;;;;5.13;1.83;;;;;;;19.15;38.48;100566.03;5034817;28;20742;-69
2021/12/26 08:46:30;;;;;;;3.55;1.50;;;;;;;19.21;38.15;100562.81;5035674;28;20029;-70
2021/12/26 08:48:56;;;;;;;4.57;1.40;;;;;;;19.27;38.16;100558.81;5034735;28;20028;-67
2021/12/26 08:51:21;;;;;;;4.03;1.58;;;;;;;19.31;38.29;100562.00;5034266;28;20088;-67
2021/12/26 08:53:46;;;;;;;4.78;1.42;;;;;;;19.39;38.93;100562.13;5033067;28;20034;-67
2021/12/26 08:56:14;;;;;;;5.93;1.60;;;;;;;19.46;39.09;100562.44;5032336;28;20056;-69
2021/12/26 08:58:39;;;;;;;4.55;1.67;;;;;;;19.50;38.69;100569.09;5032352;28;20030;-67
2021/12/26 09:01:05;;;;;;;5.10;1.55;;;;;;;19.53;38.54;100560.88;5036995;28;20036;-68
2021/12/26 09:03:37;;;;;;;4.10;1.58;;;;;;;19.57;38.66;100562.28;5039452;28;20057;-68
2021/12/26 09:06:02;;;;;;;4.53;1.83;;;;;;;19.60;38.16;100556.72;5035455;28;20026;-66
2021/12/26 09:08:28;;;;;;;4.80;1.40;;;;;;;19.64;38.26;100557.25;5032684;28;20048;-66
2021/12/26 09:10:53;;;;;;;4.60;1.63;;;;;;;19.65;38.37;100541.25;5033249;28;20064;-67
2021/12/26 09:13:18;;;;;;;7.37;1.50;;;;;;;19.70;37.94;100551.41;5036950;28;20263;-66
2021/12/26 09:15:43;;;;;;;4.93;1.70;;;;;;;19.71;37.63;100556.56;5036242;28;20679;-67
2021/12/26 09:18:15;;;;;;;6.07;1.70;;;;;;;19.71;37.80;100556.56;5037261;28;20040;-69
2021/12/26 09:20:40;;;;;;;5.50;1.90;;;;;;;19.69;37.48;100553.22;5035694;28;20026;-70
2021/12/26 09:23:05;;;;;;;6.60;1.67;;;;;;;19.67;37.45;100557.78;5034114;28;20394;-70
2021/12/26 09:25:31;;;;;;;4.88;1.85;;;;;;;19.66;37.59;100560.56;5033707;28;20404;-71
2021/12/26 09:28:02;;;;;;;4.43;1.80;;;;;;;19.55;36.34;100553.63;5032132;28;20037;-68
2021/12/26 09:30:27;;;;;;;6.90;1.98;;;;;;;19.50;37.27;100562.00;5032469;28;20465;-69
2021/12/26 09:32:52;;;;;;;4.32;1.92;;;;;;;19.46;37.68;100557.97;5035766;28;20095;-71
2021/12/26 09:35:18;;;;;;;5.25;1.85;;;;;;;19.43;38.21;100570.63;5036115;28;20120;-71
2021/12/26 09:37:44;;;;;;;5.57;1.65;;;;;;;19.37;38.74;100561.44;5034670;28;20023;-70
2021/12/26 09:40:16;;;;;;;5.30;1.70;;;;;;;19.32;38.70;100555.75;5035725;28;20025;-70
2021/12/26 09:42:44;;;;;;;3.17;1.27;;;;;;;19.29;38.93;100563.94;5035243;28;20104;-70
2021/12/26 09:45:10;;;;;;;4.30;1.65;;;;;;;19.25;39.21;100562.56;5034875;28;20380;-70
2021/12/26 09:47:37;;;;;;;5.57;1.48;;;;;;;19.24;39.17;100574.09;5035785;28;20420;-71
2021/12/26 09:50:04;;;;;;;3.67;1.52;;;;;;;19.21;39.37;100576.03;5035307;28;20033;-70
2021/12/26 09:52:32;;;;;;;5.80;1.52;;;;;;;19.20;39.63;100574.38;5046965;28;20025;-70
2021/12/26 09:54:59;;;;;;;6.15;1.85;;;;;;;19.18;39.21;100568.41;5037175;28;20389;-65
2021/12/26 09:57:25;;;;;;;4.97;1.60;;;;;;;19.17;39.45;100564.09;5035776;28;20029;-70
2021/12/26 09:59:50;;;;;;;5.90;1.70;;;;;;;19.16;39.32;100551.03;5035253;28;20033;-70
2021/12/26 10:02:16;;;;;;;5.07;1.52;;;;;;;19.14;39.59;100550.34;5036108;28;20500;-71
2021/12/26 10:04:43;;;;;;;8.57;2.63;;;;;;;19.14;39.24;100545.88;5035398;28;20473;-70
2021/12/26 10:07:13;;;;;;;3.53;1.55;;;;;;;19.13;39.21;100540.72;5035475;28;20029;-70
2021/12/26 10:09:42;;;;;;;4.28;1.50;;;;;;;19.12;39.34;100539.91;5035373;28;20029;-68
2021/12/26 10:12:14;;;;;;;5.43;1.60;;;;;;;19.10;39.47;100533.06;5034832;28;20421;-69
2021/12/26 10:14:43;;;;;;;4.38;1.50;;;;;;;19.10;39.78;100536.53;5035146;28;20030;-70
2021/12/26 10:17:12;;;;;;;5.63;1.73;;;;;;;19.08;39.97;100520.00;5034989;28;20056;-69
2021/12/26 10:19:44;;;;;;;4.60;1.60;;;;;;;19.08;39.90;100520.00;5035222;28;20048;-68
2021/12/26 10:22:11;;;;;;;5.28;1.70;;;;;;;19.08;39.74;100516.53;5034902;28;20049;-69
2021/12/26 10:24:48;;;;;;;5.95;1.88;;;;;;;19.07;39.69;100530.72;5035102;28;20072;-68
2021/12/26 10:27:21;;;;;;;3.67;1.40;;;;;;;19.08;39.62;100516.53;5034230;28;20052;-68
2021/12/26 10:29:51;;;;;;;4.07;1.40;;;;;;;19.06;39.85;100519.31;5034476;28;20543;-68
2021/12/26 10:32:20;;;;;;;5.20;1.63;;;;;;;19.06;39.77;100513.19;5034861;28;20040;-68
2021/12/26 10:34:48;;;;;;;4.45;1.38;;;;;;;19.06;39.98;100516.69;5034242;28;20033;-68
2021/12/26 10:37:36;;;;;;;3.83;1.50;;;;;;;19.05;39.93;100504.44;5034683;28;20025;-70
2021/12/26 10:40:10;;;;;;;4.40;1.60;;;;;;;19.05;39.84;100508.91;5033613;28;20057;-68
2021/12/26 10:42:36;;;;;;;;;;;;;;;19.00;38.63;100509.31;5034912;28;20049;-67
2021/12/26 10:45:08;;;;;;;5.00;1.55;;;;;;;19.01;39.68;100503.06;5034045;28;19960;-67
2021/12/26 10:47:35;;;;;;;5.35;1.55;;;;;;;19.00;39.77;100501.38;5033601;28;20983;-66
2021/12/26 10:50:11;;;;;;;6.07;1.90;;;;;;;19.00;40.01;100499.56;5034175;28;20442;-67
2021/12/26 10:52:39;;;;;;;4.50;1.63;;;;;;;18.99;39.94;100490.00;5034207;28;20021;-65
2021/12/26 10:55:14;;;;;;;4.45;1.50;;;;;;;18.99;39.55;100492.63;5033460;28;20025;-67
2021/12/26 10:57:47;;;;;;;;;;;;;;;18.94;39.91;100486.09;5034368;28;20029;-67
2021/12/26 11:00:17;;;;;;;4.88;1.52;;;;;;;19.01;40.00;100492.50;5034344;28;19955;-69
2021/12/26 11:02:53;;;;;;;4.40;1.67;;;;;;;19.00;39.94;100490.81;5033189;28;20029;-67
2021/12/26 11:05:24;;;;;;;3.90;1.50;;;;;;;19.00;39.93;100486.38;5034143;28;20033;-67
2021/12/26 11:07:57;;;;;;;5.05;1.50;;;;;;;19.00;39.87;100482.91;5033723;28;20544;-67
2021/12/26 11:10:24;;;;;;;5.57;1.55;;;;;;;18.99;40.07;100476.78;5033117;28;20065;-68
2021/12/26 11:12:58;;;;;;;4.88;1.60;;;;;;;18.99;40.08;100478.59;5033717;28;20048;-67
2021/12/26 11:15:28;;;;;;;6.10;2.10;;;;;;;18.97;38.04;100477.91;5033210;28;20044;-67
2021/12/26 11:18:06;;;;;;;6.65;2.38;;;;;;;18.94;37.85;100478.16;5033607;28;20025;-67
2021/12/26 11:20:36;;;;;;;5.72;1.77;;;;;;;18.90;39.29;100482.91;5033740;28;20045;-67
2021/12/26 11:23:09;;;;;;;5.75;1.70;;;;;;;18.91;39.72;100471.34;5032489;28;20413;-66
2021/12/26 11:25:44;;;;;;;4.68;1.58;;;;;;;18.93;39.99;100476.50;5033614;28;20470;-66
2021/12/26 11:28:11;;;;;;;5.15;1.70;;;;;;;18.92;39.83;100475.66;5033848;28;20022;-67
2021/12/26 11:30:36;;;;;;;5.00;1.58;;;;;;;18.93;39.62;100465.94;5032664;28;20045;-67